• Join FlightAware (Why Join?)
  • Login
  • US Flag 
12:10AM EST


 

Airport Tracker/Info


-or-


 

Live Flight TrackerFlight Track Log ✈ CPZ5750 ✈ 05-Jul-2013 ✈ KMSP - KALB

Flight Track Log - Related Links

Times and Time Zones

All times are in EDT time to prevent confusion due to time zone crossing. See the CPZ5750 flight status page for this flight to view local times or setup timezone preferences in your user account.

Time Position Orientation Groundspeed Altitude Reporting Facility
EDT Latitude Longitude Course Direction KTS MPH feet Rate Location/Type
04:31PM 44.8833 -93.1667 70° East 166 191 2,000  Level Minneapolis TRACON
04:32PM 44.8708 -93.0811 102° East 222 255 3,300 1,920 Climbing Minneapolis Center
04:33PM 44.9267 -93.0239 36° Northeast 293 337 6,000 2,340 Climbing Minneapolis Center
04:34PM 45.0420 -92.6115 68° East  Level FlightAware Approximate
04:34PM 45.0100 -93.0119 North 302 348 8,200  Level Minneapolis Center
04:35PM 45.0852 -92.4594 70° East  Level FlightAware Approximate
04:35PM 45.0789 -92.9417 36° Northeast 323 372 10,700  Level Minneapolis Center
04:36PM 45.1199 -92.3038 70° East  Level FlightAware Approximate
04:36PM 45.1447 -92.8306 50° Northeast 367 422 12,800  Level Minneapolis Center
04:37PM 45.2247 -92.6964 50° Northeast 371 427 16,300 3,000 Climbing Minneapolis Center
04:38PM 45.2625 -92.5706 67° East 356 410 19,000 2,160 Climbing Minneapolis Center
04:39PM 45.2842 -92.4272 78° East 370 426 20,800 1,500 Climbing Minneapolis Center
04:40PM 45.3044 -92.2764 79° East 386 444 22,200 1,140 Climbing Minneapolis Center
04:41PM 45.3167 -92.1119 84° East 416 479 23,200 1,200 Climbing Minneapolis Center
04:42PM 45.3042 -91.9411 96° East 431 496 24,700 1,560 Climbing Minneapolis Center
04:43PM 45.2922 -91.7347 95° East 438 504 26,500 1,440 Climbing Minneapolis Center
04:45PM 45.2819 -91.5592 95° East 445 512 27,700 1,020 Climbing Minneapolis Center
04:46PM 45.2692 -91.3817 96° East 450 518 28,700 1,020 Climbing Minneapolis Center
04:47PM 45.2572 -91.1842 95° East 458 527 29,900 1,020 Climbing Minneapolis Center
04:48PM 45.2456 -91.0042 95° East 460 529 30,900 1,020 Climbing Minneapolis Center
04:49PM 45.2347 -90.8239 95° East 460 529 32,100 1,200 Climbing Minneapolis Center
04:50PM 45.2219 -90.6469 96° East 456 525 33,500 1,080 Climbing Minneapolis Center
04:51PM 45.2097 -90.4747 96° East 447 514 34,400 720 Climbing Minneapolis Center
04:52PM 45.1961 -90.2675 95° East 442 509 35,000 240 Climbing Minneapolis Center
04:53PM 45.1831 -90.0911 96° East 449 517 35,000  Level Minneapolis Center
04:54PM 45.1708 -89.9175 96° East 448 516 35,000  Level Minneapolis Center
04:55PM 45.1569 -89.7436 96° East 447 514 35,000  Level Minneapolis Center
04:56PM 45.1439 -89.5700 96° East 446 513 35,000  Level Minneapolis Center
04:57PM 45.1278 -89.3633 96° East 443 510 35,000  Level Minneapolis Center
04:58PM 45.1136 -89.1917 97° East 442 509 35,000  Level Minneapolis Center
04:59PM 45.0992 -89.0158 97° East 450 518 35,000  Level Minneapolis Center
05:00PM 45.0819 -88.8075 97° East 448 516 35,000  Level Minneapolis Center
05:01PM 45.0667 -88.6211 97° East 447 514 35,000  Level Minneapolis Center
05:03PM 45.0481 -88.4161 97° East 441 507 35,000  Level Minneapolis Center
05:04PM 45.0331 -88.2439 97° East 442 509 35,000  Level Minneapolis Center
05:05PM 45.0164 -88.0692 98° East 448 516 35,000  Level Minneapolis Center
05:06PM 44.9978 -87.8597 97° East 451 519 35,000  Level Minneapolis Center
05:07PM 44.9814 -87.6847 97° East 450 518 35,000  Level Minneapolis Center
05:08PM 44.9642 -87.5083 98° East 452 520 35,000  Level Minneapolis Center
05:09PM 44.9464 -87.3289 98° East 461 531 35,000  Level Minneapolis Center
05:10PM 44.9289 -87.1528 98° East 458 527 35,000  Level Minneapolis Center
05:11PM 44.9103 -86.9728 98° East 461 531 35,000  Level Minneapolis Center
05:12PM 44.8919 -86.7925 98° East 465 535 35,000  Level Minneapolis Center
05:13PM 44.8719 -86.5906 98° East 468 539 35,000 360 Level Minneapolis Center
05:14PM 44.8531 -86.4125 98° East 464 534 35,800 780 Climbing Minneapolis Center
05:15PM 44.8381 -86.2694 98° East 462 532 36,600 540 Climbing Minneapolis Center
05:16PM 44.8150 -86.0589 99° East 456 525 37,000 180 Climbing Minneapolis Center
05:17PM 44.7903 -85.8406 99° East 465 535 37,000  Level Minneapolis Center
05:18PM 44.7697 -85.6561 99° East 474 545 37,000  Level Minneapolis Center
05:19PM 44.7503 -85.4794 99° East 473 544 37,000  Level Minneapolis Center
05:20PM 44.7297 -85.2994 99° East 470 541 37,000  Level Minneapolis Center
05:21PM 44.7044 -85.0847 99° East 465 535 37,000  Level Minneapolis Center
05:22PM 44.6828 -84.9042 100° East 467 537 37,000  Level Minneapolis Center
05:23PM 44.6606 -84.7239 100° East 471 542 37,000  Level Minneapolis Center
05:24PM 44.6389 -84.5447 100° East 468 539 37,000  Level Minneapolis Center
05:25PM 44.6175 -84.3669 100° East 464 534 37,000  Level Minneapolis Center
05:26PM 44.5939 -84.1892 101° East 464 534 37,000  Level Minneapolis Center
05:27PM 44.5758 -84.0453 100° East 467 537 37,000  Level Minneapolis Center
05:28PM 44.5436 -83.7919 100° East 472 543 37,000  Level Minneapolis Center
05:29PM 44.5208 -83.6128 100° East 471 542 37,000  Level Minneapolis Center
05:30PM 44.4961 -83.4342 101° East 468 539 37,000  Level Minneapolis Center
05:31PM 44.4728 -83.2553 100° East 469 540 37,000  Level Minneapolis Center
05:32PM 44.4475 -83.0786 101° East 466 536 37,000  Level Minneapolis Center
05:33PM 44.4244 -82.9019 100° East 464 534 37,000  Level Minneapolis Center
05:35PM 44.3944 -82.6903 101° East 464 534 37,000  Level Minneapolis Center
05:35PM 44.3667 -82.5667 107° East 470 541 37,000  Level Toronto Center
05:36PM 44.3333 -82.3833 104° East 470 541 37,000  Level Toronto Center
05:37PM 44.3000 -82.2167 106° East 460 529 37,000  Level Toronto Center
05:38PM 44.2667 -82.0500 106° East 460 529 37,000  Level Toronto Center
05:39PM 44.2333 -81.8833 106° East 460 529 37,000  Level Toronto Center
05:40PM 44.2000 -81.7333 107° East 460 529 37,000  Level Toronto Center
05:41PM 44.1500 -81.5333 109° East 460 529 37,000  Level Toronto Center
05:42PM 44.1000 -81.3667 113° Southeast 460 529 37,000  Level Toronto Center
05:43PM 44.0667 -81.2167 107° East 460 529 37,000  Level Toronto Center
05:44PM 44.0167 -81.0500 113° Southeast 460 529 37,000  Level Toronto Center
05:45PM 43.9667 -80.8833 113° Southeast 460 529 37,000  Level Toronto Center
05:46PM 43.9500 -80.7167 98° East 460 529 37,000  Level Toronto Center
05:47PM 43.9000 -80.5333 111° Southeast 460 529 37,000  Level Toronto Center
05:48PM 43.8500 -80.3667 113° Southeast 460 529 37,000  Level Toronto Center
05:49PM 43.8333 -80.1833 97° East 470 541 37,000  Level Toronto Center
05:50PM 43.8000 -80.0333 107° East 470 541 37,000  Level Toronto Center
05:51PM 43.7833 -79.8333 97° East 470 541 37,000  Level Toronto Center
05:52PM 43.7500 -79.6500 104° East 470 541 37,000  Level Toronto Center
05:53PM 43.7333 -79.4667 97° East 490 564 37,000  Level Toronto Center
05:54PM 43.7000 -79.2833 104° East 460 529 37,000  Level Toronto Center
05:55PM 43.6500 -79.1500 117° Southeast 460 529 37,000  Level Toronto Center
05:56PM 43.6000 -78.9833 112° Southeast 460 529 37,000  Level Toronto Center
05:57PM 43.5333 -78.8333 121° Southeast 460 529 37,000  Level Toronto Center
05:58PM 43.4833 -78.6667 112° Southeast 450 518 37,000  Level Toronto Center
05:59PM 43.4500 -78.5000 105° East 460 529 37,000 -120 Level Toronto Center
06:00PM 43.3833 -78.3500 121° Southeast 460 529 36,800 -480 Descending Toronto Center
06:01PM 43.3667 -78.2703 106° East 457 526 36,200 -1,080 Descending Cleveland Center
06:02PM 43.2969 -78.1217 123° Southeast 452 520 35,000 -1,200 Descending Cleveland Center
06:03PM 43.2250 -77.9819 125° Southeast 447 514 33,900 -1,140 Descending Cleveland Center
06:04PM 43.1489 -77.8372 126° Southeast 457 526 32,800 -1,200 Descending Cleveland Center
06:05PM 43.0703 -77.6928 127° Southeast 467 537 31,600 -1,200 Descending Cleveland Center
06:06PM 42.9828 -77.5381 128° Southeast 472 543 30,400 -1,200 Descending Cleveland Center
06:07PM 42.9344 -77.3700 111° Southeast 460 529 29,200 -480 Descending Cleveland Center
06:09PM 42.8858 -76.9633 99° East 486 559 29,000 -120 Descending Boston Center
06:10PM 42.8658 -76.7778 98° East 492 566 29,000  Level Boston Center
06:11PM 42.8469 -76.6119 99° East 486 559 29,000  Level Boston Center
06:12PM 42.8075 -76.4339 107° East 486 559 29,000 -60 Level Boston Center
06:13PM 42.7778 -76.2111 100° East 497 572 28,900 -600 Descending Boston Center
06:14PM 42.7614 -76.0686 99° East 490 564 27,800 -1,920 Descending Boston Center
06:15PM 42.7431 -75.8528 97° East 480 552 25,100 -2,340 Descending Boston Center
06:16PM 42.7356 -75.6828 93° East 468 539 23,200 -1,680 Descending Boston Center
06:17PM 42.7269 -75.5464 95° East 463 533 21,800 -1,800 Descending Boston Center
06:18PM 42.7194 -75.3511 93° East 446 513 19,700 -1,980 Descending Boston Center
06:19PM 42.6983 -75.1947 100° East 425 489 17,900 -1,740 Descending Boston Center
06:20PM 42.6708 -75.0436 104° East 419 482 16,300 -1,740 Descending Boston Center
06:21PM 42.6469 -74.8989 103° East 401 461 14,500 -1,860 Descending Boston Center
06:22PM 42.6208 -74.7425 103° East 391 450 12,300 -1,620 Descending Boston Center
06:23PM 42.5906 -74.5833 104° East 368 423 11,100 -1,200 Descending Boston Center
06:24PM 42.6014 -74.4542 83° East 341 392 10,000 -1,380 Descending Boston Center
06:25PM 42.6467 -74.3653 55° Northeast 305 351 8,400 -1,560 Descending Boston Center
06:27PM 42.7006 -74.2594 55° Northeast 300 345 6,600 -1,800 Descending Boston Center
06:28PM 42.7522 -74.1536 56° Northeast 294 338 4,600 -1,800 Descending Boston Center
06:29PM 42.7972 -74.0728 53° Northeast 274 315 3,200 -780 Descending Boston Center
06:30PM 42.8233 -73.9969 65° Northeast 262 302 3,000 -600 Descending Boston Center
06:31PM 42.8350 -73.9039 80° East 214 246 2,100 -960 Descending Boston Center